Time;durP1;ratioP1;P1;durP2;ratioP2;P2;SDS_P1;SDS_P2;PMS_P1;PMS_P2;Temp;Humidity;BMP_temperature;BMP_pressure;BME280_temperature;BME280_humidity;BME280_pressure;Samples;Min_cycle;Max_cycle;Signal;HPM_P1;HPM_P2
2022/08/14 00:02:25;;;;;;;14.88;11.27;;;20.00;99.90;;;;;;5086263;28;20016;-46
2022/08/14 00:04:50;;;;;;;13.98;11.25;;;19.90;99.90;;;;;;5088013;28;20020;-46
2022/08/14 00:07:16;;;;;;;15.65;11.45;;;20.00;99.90;;;;;;5087841;28;20182;-47
2022/08/14 00:09:42;;;;;;;16.88;11.30;;;20.00;99.90;;;;;;5087543;28;20511;-46
2022/08/14 00:12:08;;;;;;;17.90;11.57;;;20.00;99.90;;;;;;5087122;28;20456;-46
2022/08/14 00:14:34;;;;;;;12.55;9.88;;;19.90;99.90;;;;;;5087851;28;20055;-46
2022/08/14 00:17:00;;;;;;;14.30;10.48;;;19.90;99.90;;;;;;5087625;28;20111;-45
2022/08/14 00:19:25;;;;;;;14.13;10.50;;;19.90;99.90;;;;;;5091045;28;20108;-47
2022/08/14 00:21:51;;;;;;;14.65;10.02;;;19.80;99.90;;;;;;5089877;28;20111;-45
2022/08/14 00:24:21;;;;;;;12.13;10.32;;;19.80;99.90;;;;;;5090457;28;20030;-46
2022/08/14 00:26:47;;;;;;;13.63;9.83;;;19.80;99.90;;;;;;5079401;28;20609;-47
2022/08/14 00:29:12;;;;;;;11.88;10.40;;;19.70;99.90;;;;;;5088571;28;20063;-44
2022/08/14 00:31:38;;;;;;;12.48;10.52;;;19.80;99.90;;;;;;5091308;28;20024;-46
2022/08/14 00:34:04;;;;;;;12.63;10.63;;;19.80;99.90;;;;;;5091669;28;20026;-46
2022/08/14 00:36:29;;;;;;;12.63;10.60;;;19.80;99.90;;;;;;5091567;28;20089;-47
2022/08/14 00:38:55;;;;;;;12.52;10.80;;;19.80;99.90;;;;;;5091659;28;20527;-45
2022/08/14 00:41:20;;;;;;;13.05;10.82;;;19.90;99.90;;;;;;5090831;28;20101;-45
2022/08/14 00:43:46;;;;;;;13.32;11.13;;;19.90;99.90;;;;;;5091429;28;20426;-46
2022/08/14 00:46:12;;;;;;;13.70;11.30;;;19.80;99.90;;;;;;5090154;28;20024;-46
2022/08/14 00:48:38;;;;;;;13.13;11.50;;;19.80;99.90;;;;;;5085428;28;20028;-45
2022/08/14 00:51:07;;;;;;;13.55;11.63;;;19.70;99.90;;;;;;5080792;28;20089;-45
2022/08/14 00:53:35;;;;;;;15.05;12.23;;;19.80;99.90;;;;;;5091093;28;20414;-46
2022/08/14 00:56:01;;;;;;;13.75;11.40;;;19.80;99.90;;;;;;5091063;28;20024;-46
2022/08/14 00:58:29;;;;;;;15.18;11.88;;;19.80;99.90;;;;;;5091144;28;20489;-48
2022/08/14 01:00:57;;;;;;;12.25;11.05;;;19.80;99.90;;;;;;5090411;28;20028;-46
2022/08/14 01:03:24;;;;;;;13.55;11.52;;;19.80;99.90;;;;;;5091212;28;20111;-46
2022/08/14 01:05:51;;;;;;;12.63;11.27;;;19.80;99.90;;;;;;5091181;28;20107;-45
2022/08/14 01:08:20;;;;;;;12.85;10.70;;;19.90;99.90;;;;;;5091094;28;20403;-44
2022/08/14 01:10:49;;;;;;;12.15;10.55;;;19.90;99.90;;;;;;5090147;28;20024;-45
2022/08/14 01:13:20;;;;;;;11.95;10.60;;;19.90;99.90;;;;;;5090787;28;20103;-44
2022/08/14 01:15:49;;;;;;;13.30;11.63;;;19.90;99.90;;;;;;5090843;28;20328;-48
2022/08/14 01:21:02;;;;;;;12.23;10.68;;;19.90;99.90;;;;;;5081675;28;20510;-45
2022/08/14 01:23:29;;;;;;;12.50;11.20;;;19.90;99.90;;;;;;5090627;28;20039;-45
2022/08/14 01:25:55;;;;;;;14.15;12.02;;;20.00;99.90;;;;;;5084489;28;20165;-46
2022/08/14 01:28:21;;;;;;;12.48;10.85;;;19.90;99.90;;;;;;5081518;28;20024;-45
2022/08/14 01:30:48;;;;;;;12.77;11.45;;;19.90;99.90;;;;;;5087393;28;20503;-44
2022/08/14 01:33:15;;;;;;;14.57;11.93;;;19.90;99.90;;;;;;5081898;28;20055;-44
2022/08/14 01:35:45;;;;;;;12.27;10.93;;;19.90;99.90;;;;;;5090527;28;20025;-47
2022/08/14 01:38:13;;;;;;;12.10;10.90;;;19.90;99.90;;;;;;5089346;28;20724;-45
2022/08/14 01:40:39;;;;;;;12.32;11.05;;;19.90;99.90;;;;;;5089883;28;20395;-45
2022/08/14 01:43:14;;;;;;;12.77;11.48;;;19.90;99.90;;;;;;5090534;28;20028;-45
2022/08/14 01:45:40;;;;;;;11.85;10.65;;;19.90;99.90;;;;;;5090278;28;20024;-45
2022/08/14 01:48:06;;;;;;;12.80;11.38;;;19.90;99.90;;;;;;5090466;28;20031;-47
2022/08/14 01:50:32;;;;;;;13.77;12.38;;;19.90;99.90;;;;;;5089775;28;20120;-48
2022/08/14 01:52:57;;;;;;;15.30;13.00;;;19.90;99.90;;;;;;5089665;28;20024;-46
2022/08/14 01:55:29;;;;;;;15.13;12.73;;;20.00;99.90;;;;;;5089853;28;20028;-47
2022/08/14 01:57:54;;;;;;;13.15;11.43;;;19.90;99.90;;;;;;5089966;28;20027;-46
2022/08/14 02:00:20;;;;;;;15.20;13.63;;;19.90;99.90;;;;;;5088792;28;20024;-47
2022/08/14 02:02:45;;;;;;;13.77;12.23;;;19.90;99.90;;;;;;5081241;28;20063;-45
2022/08/14 02:05:13;;;;;;;15.25;12.82;;;19.90;99.90;;;;;;5090002;28;20035;-48
2022/08/14 02:07:39;;;;;;;14.57;12.85;;;19.90;99.90;;;;;;5089861;28;20031;-46
2022/08/14 02:10:07;;;;;;;15.82;13.73;;;19.90;99.90;;;;;;5088588;28;20105;-46
2022/08/14 02:12:32;;;;;;;15.65;13.95;;;19.90;99.90;;;;;;5089018;28;20035;-46
2022/08/14 02:14:59;;;;;;;20.60;15.75;;;19.90;99.90;;;;;;5089648;28;20028;-46
2022/08/14 02:17:26;;;;;;;17.83;14.48;;;19.80;99.90;;;;;;5089536;28;20119;-46
2022/08/14 02:19:52;;;;;;;16.88;14.85;;;19.80;99.90;;;;;;5089458;28;20101;-47
2022/08/14 02:22:18;;;;;;;20.77;15.25;;;19.80;99.90;;;;;;5089177;28;20510;-46
2022/08/14 02:24:44;;;;;;;16.73;14.73;;;19.80;99.90;;;;;;5089468;28;20210;-46
2022/08/14 02:27:10;;;;;;;17.83;15.98;;;19.80;99.90;;;;;;5077039;28;20025;-46
2022/08/14 02:29:36;;;;;;;16.95;15.25;;;19.80;99.90;;;;;;5089379;28;20497;-49
2022/08/14 02:32:02;;;;;;;18.23;16.23;;;19.80;99.90;;;;;;5089020;28;20285;-46
2022/08/14 02:34:37;;;;;;;17.35;15.50;;;19.80;99.90;;;;;;5089150;28;20032;-45
2022/08/14 02:37:12;;;;;;;18.75;14.63;;;19.80;99.90;;;;;;5088249;28;20020;-46
2022/08/14 02:39:43;;;;;;;17.73;15.05;;;19.70;99.90;;;;;;5089182;28;20146;-46
2022/08/14 02:42:12;;;;;;;17.17;14.82;;;19.70;99.90;;;;;;5086571;28;20115;-45
2022/08/14 02:44:42;;;;;;;16.88;13.27;;;19.80;99.90;;;;;;5089250;28;20394;-45
2022/08/14 02:47:08;;;;;;;16.93;14.53;;;19.80;99.90;;;;;;5087789;28;20027;-46
2022/08/14 02:49:35;;;;;;;17.65;14.98;;;19.80;99.90;;;;;;5088990;28;20028;-47
2022/08/14 02:52:02;;;;;;;16.10;14.40;;;19.70;99.90;;;;;;5088663;28;20024;-45
2022/08/14 02:54:27;;;;;;;15.52;14.02;;;19.70;99.90;;;;;;5088905;28;20029;-49
2022/08/14 02:56:55;;;;;;;18.15;16.13;;;19.70;99.90;;;;;;5078056;28;20113;-46
2022/08/14 02:59:23;;;;;;;18.75;15.38;;;19.70;99.90;;;;;;5086780;28;20028;-46
2022/08/14 03:01:49;;;;;;;15.32;13.82;;;19.70;99.90;;;;;;5088387;28;20475;-48
2022/08/14 03:04:15;;;;;;;16.98;15.20;;;19.70;99.90;;;;;;5089199;28;20528;-45
2022/08/14 03:06:44;;;;;;;17.88;15.38;;;19.70;99.90;;;;;;5088941;28;20035;-48
2022/08/14 03:09:10;;;;;;;19.17;14.65;;;19.70;99.90;;;;;;5088948;28;20441;-46
2022/08/14 03:11:37;;;;;;;16.98;14.68;;;19.70;99.90;;;;;;5086782;28;20031;-47
2022/08/14 03:14:03;;;;;;;16.15;14.55;;;19.60;99.90;;;;;;5088938;28;20047;-47
2022/08/14 03:16:34;;;;;;;16.30;14.68;;;19.70;99.90;;;;;;5088922;28;20032;-46
2022/08/14 03:19:13;;;;;;;16.60;15.00;;;19.70;99.90;;;;;;5088849;28;20036;-47
2022/08/14 03:21:39;;;;;;;17.00;15.23;;;19.60;99.90;;;;;;5087932;28;20080;-46
2022/08/14 03:24:11;;;;;;;15.95;14.15;;;19.70;99.90;;;;;;5088615;28;20387;-46
2022/08/14 03:26:45;;;;;;;17.83;15.93;;;19.60;99.90;;;;;;5079478;28;20020;-46
2022/08/14 03:29:14;;;;;;;18.40;14.70;;;19.60;99.90;;;;;;5084957;28;20035;-46
2022/08/14 03:31:40;;;;;;;15.82;14.20;;;19.70;99.90;;;;;;5087930;28;20402;-47
2022/08/14 03:34:11;;;;;;;17.13;15.43;;;19.60;99.90;;;;;;5088508;28;20016;-47
2022/08/14 03:36:39;;;;;;;17.98;15.48;;;19.60;99.90;;;;;;5088545;28;20021;-46
2022/08/14 03:39:07;;;;;;;17.92;16.13;;;19.60;99.90;;;;;;5087107;28;20036;-46
2022/08/14 03:41:34;;;;;;;15.95;14.35;;;19.70;99.90;;;;;;5087654;28;20157;-46
2022/08/14 03:44:02;;;;;;;18.50;16.25;;;19.60;99.90;;;;;;5088462;28;20057;-49
2022/08/14 03:46:31;;;;;;;18.40;16.20;;;19.50;99.90;;;;;;5088526;28;20028;-45
2022/08/14 03:48:57;;;;;;;16.92;15.23;;;19.50;99.90;;;;;;5087209;28;20020;-45
2022/08/14 03:51:27;;;;;;;19.92;17.83;;;19.50;99.90;;;;;;5086639;28;20024;-46
2022/08/14 03:53:55;;;;;;;18.23;16.30;;;19.50;99.90;;;;;;5092207;28;20386;-46
2022/08/14 03:56:21;;;;;;;17.65;15.77;;;19.50;99.90;;;;;;5087849;28;20409;-46
2022/08/14 03:58:49;;;;;;;18.20;16.35;;;19.50;99.90;;;;;;5085525;28;20093;-45
2022/08/14 04:01:18;;;;;;;18.52;16.02;;;19.40;99.90;;;;;;5091775;28;20022;-46
2022/08/14 04:03:45;;;;;;;18.90;17.00;;;19.40;99.90;;;;;;5092230;28;20093;-46
2022/08/14 04:06:11;;;;;;;18.23;16.27;;;19.40;99.90;;;;;;5092136;28;20024;-46
2022/08/14 04:08:38;;;;;;;17.15;14.30;;;19.40;99.90;;;;;;5092153;28;20107;-47
2022/08/14 04:11:04;;;;;;;15.15;13.65;;;19.30;99.90;;;;;;5091263;28;20395;-45
2022/08/14 04:13:32;;;;;;;17.10;15.27;;;19.30;99.90;;;;;;5090674;28;20051;-46
2022/08/14 04:15:59;;;;;;;16.75;15.02;;;19.20;99.90;;;;;;5091840;28;20637;-45
2022/08/14 04:18:24;;;;;;;16.60;14.98;;;19.20;99.90;;;;;;5090605;28;20045;-46
2022/08/14 04:20:50;;;;;;;16.77;15.18;;;19.20;99.90;;;;;;5091149;28;20079;-47
2022/08/14 04:23:16;;;;;;;18.77;16.77;;;19.20;99.90;;;;;;5091881;28;20052;-46
2022/08/14 04:25:42;;;;;;;17.80;16.00;;;19.10;99.90;;;;;;5086581;28;20027;-46
2022/08/14 04:28:10;;;;;;;18.83;16.23;;;19.10;99.90;;;;;;5083291;28;20317;-48
2022/08/14 04:30:38;;;;;;;17.90;16.08;;;19.10;99.90;;;;;;5091257;28;20494;-47
2022/08/14 04:33:06;;;;;;;16.92;15.13;;;19.10;99.90;;;;;;5090102;28;20032;-46
2022/08/14 04:35:31;;;;;;;17.58;15.77;;;19.10;99.90;;;;;;5091500;28;20178;-45
2022/08/14 04:43:38;;;;;;;19.92;17.83;;;19.10;99.90;;;;;;5091486;28;20081;-45
2022/08/14 04:46:13;;;;;;;18.63;16.73;;;19.20;99.90;;;;;;5091448;28;20024;-47
2022/08/14 04:48:39;;;;;;;20.23;18.02;;;19.30;99.90;;;;;;5091600;28;20024;-49
2022/08/14 04:51:08;;;;;;;18.50;16.60;;;19.30;99.90;;;;;;5090586;28;20084;-47
2022/08/14 04:53:35;;;;;;;22.20;19.25;;;19.40;99.90;;;;;;5091466;28;20028;-47
2022/08/14 04:56:00;;;;;;;22.27;17.60;;;19.40;99.90;;;;;;5088356;28;20024;-48
2022/08/14 04:58:29;;;;;;;21.30;18.85;;;19.50;99.90;;;;;;5082664;28;20032;-46
2022/08/14 05:00:57;;;;;;;22.55;17.38;;;19.50;99.90;;;;;;5090602;28;20020;-48
2022/08/14 05:03:25;;;;;;;20.42;18.02;;;19.60;99.90;;;;;;5090245;28;20070;-49
2022/08/14 05:05:55;;;;;;;20.23;18.17;;;19.60;99.90;;;;;;5091020;28;20052;-47
2022/08/14 05:08:22;;;;;;;19.48;17.38;;;19.70;99.90;;;;;;5089696;28;20433;-49
2022/08/14 05:10:56;;;;;;;21.27;17.70;;;19.70;99.90;;;;;;5090089;28;20028;-45
2022/08/14 05:13:24;;;;;;;20.50;18.05;;;19.80;99.90;;;;;;5090894;28;20047;-49
2022/08/14 05:15:51;;;;;;;20.23;18.17;;;19.90;99.90;;;;;;5090640;28;20024;-47
2022/08/14 05:18:20;;;;;;;19.88;17.98;;;19.90;99.90;;;;;;5090703;28;20099;-46
2022/08/14 05:20:48;;;;;;;21.52;17.55;;;19.90;99.90;;;;;;5090035;28;20016;-46
2022/08/14 05:23:17;;;;;;;20.65;18.65;;;19.90;99.90;;;;;;5090835;28;20031;-46
2022/08/14 05:25:43;;;;;;;23.67;19.77;;;19.90;99.90;;;;;;5084145;28;20021;-46
2022/08/14 05:28:18;;;;;;;25.27;19.88;;;19.90;99.90;;;;;;5078704;28;20024;-47
2022/08/14 05:30:55;;;;;;;22.95;20.52;;;19.90;99.90;;;;;;5049910;28;20024;-44
2022/08/14 05:33:40;;;;;;;24.38;20.63;;;19.80;99.90;;;;;;5048731;28;20025;-45
2022/08/14 05:36:10;;;;;;;23.35;20.38;;;19.90;99.90;;;;;;5064040;28;20395;-44
2022/08/14 05:38:43;;;;;;;23.15;20.67;;;19.80;99.90;;;;;;5067089;28;20115;-45
2022/08/14 05:41:16;;;;;;;24.17;21.30;;;19.80;99.90;;;;;;5066078;28;20025;-46
2022/08/14 05:43:43;;;;;;;19.85;17.85;;;19.80;99.90;;;;;;5069507;28;20025;-45
2022/08/14 05:46:10;;;;;;;19.45;17.55;;;19.80;99.90;;;;;;5068758;28;20086;-45
2022/08/14 05:48:36;;;;;;;22.25;19.23;;;19.90;99.90;;;;;;5070371;28;20387;-46
2022/08/14 05:51:02;;;;;;;20.73;18.52;;;19.90;99.90;;;;;;5069147;28;20025;-48
2022/08/14 05:53:28;;;;;;;24.65;19.73;;;19.90;99.90;;;;;;5069779;28;20039;-46
2022/08/14 05:55:57;;;;;;;22.00;19.80;;;19.90;99.90;;;;;;5064772;28;20021;-45
2022/08/14 05:58:23;;;;;;;24.45;19.17;;;19.90;99.90;;;;;;5075607;28;20009;-45
2022/08/14 06:00:49;;;;;;;21.17;18.48;;;19.90;99.90;;;;;;5069024;28;20039;-44
2022/08/14 06:03:16;;;;;;;24.60;19.73;;;20.00;99.90;;;;;;5069722;28;20036;-47
2022/08/14 06:05:44;;;;;;;21.40;18.05;;;20.00;99.90;;;;;;5069655;28;20032;-45
2022/08/14 06:08:19;;;;;;;20.42;17.55;;;20.10;99.90;;;;;;5069756;28;20074;-46
2022/08/14 06:10:45;;;;;;;20.20;18.10;;;20.10;99.90;;;;;;5068633;28;20025;-48
2022/08/14 06:13:13;;;;;;;20.60;18.40;;;20.10;99.90;;;;;;5069062;28;20082;-44
2022/08/14 06:15:40;;;;;;;23.98;19.13;;;20.10;99.90;;;;;;5068556;28;20039;-45
2022/08/14 06:18:05;;;;;;;20.80;18.58;;;20.20;99.90;;;;;;5069615;28;20229;-45
2022/08/14 06:20:31;;;;;;;23.02;18.90;;;20.20;99.90;;;;;;5065940;28;20024;-44
2022/08/14 06:22:58;;;;;;;20.00;17.98;;;20.20;99.90;;;;;;5062128;28;20025;-44
2022/08/14 06:25:23;;;;;;;21.08;18.83;;;20.30;99.90;;;;;;5060878;28;20471;-43
2022/08/14 06:27:49;;;;;;;21.20;18.00;;;20.30;99.90;;;;;;5066311;28;20030;-47
2022/08/14 06:30:22;;;;;;;20.85;18.23;;;20.30;99.90;;;;;;5064304;28;20040;-45
2022/08/14 06:32:48;;;;;;;20.05;17.48;;;20.40;99.90;;;;;;5070780;28;20031;-44
2022/08/14 06:35:16;;;;;;;21.30;19.15;;;20.40;99.90;;;;;;5065770;28;20032;-46
2022/08/14 06:37:45;;;;;;;21.35;17.42;;;20.50;99.90;;;;;;5062670;28;20532;-45
2022/08/14 06:40:13;;;;;;;19.98;18.02;;;20.50;99.90;;;;;;5075059;28;20033;-44
2022/08/14 06:42:39;;;;;;;20.80;18.52;;;20.50;99.90;;;;;;5075767;28;20115;-45
2022/08/14 06:45:06;;;;;;;22.98;18.88;;;20.60;99.90;;;;;;5064684;28;20075;-45
2022/08/14 06:47:37;;;;;;;22.65;20.23;;;20.70;99.90;;;;;;5066634;28;20029;-45
2022/08/14 06:50:06;;;;;;;;;;;20.80;99.90;;;;;;5061156;28;20075;-44
2022/08/14 06:52:32;;;;;;;19.58;17.55;;;20.80;99.90;;;;;;5056060;28;19916;-46
2022/08/14 06:54:58;;;;;;;19.45;17.45;;;20.90;99.90;;;;;;5081050;28;20024;-46
2022/08/14 06:57:24;;;;;;;19.58;17.67;;;20.90;99.90;;;;;;5068267;28;20020;-44
2022/08/14 06:59:50;;;;;;;20.52;17.20;;;21.10;99.90;;;;;;5063579;28;20028;-45
2022/08/14 07:07:45;;;;;;;19.23;17.23;;;21.60;99.90;;;;;;5069794;28;20277;-44
2022/08/14 07:10:11;;;;;;;18.20;16.42;;;21.80;99.90;;;;;;5071533;28;20457;-45
2022/08/14 07:12:37;;;;;;;17.45;15.77;;;21.80;99.90;;;;;;5066931;28;20104;-48
2022/08/14 07:15:04;;;;;;;16.67;14.98;;;21.90;99.90;;;;;;5068953;28;20028;-45
2022/08/14 07:17:30;;;;;;;19.33;16.98;;;22.00;99.90;;;;;;5079803;28;20024;-44
2022/08/14 07:19:55;;;;;;;18.00;16.20;;;22.00;99.90;;;;;;5088669;28;20177;-44
2022/08/14 07:22:21;;;;;;;16.25;14.65;;;22.00;99.90;;;;;;5088121;28;20020;-44
2022/08/14 07:24:46;;;;;;;17.70;15.95;;;22.00;99.90;;;;;;5088498;28;20449;-45
2022/08/14 07:27:12;;;;;;;19.77;16.90;;;22.10;99.90;;;;;;5080048;28;20111;-45
2022/08/14 07:29:37;;;;;;;18.33;16.42;;;22.20;99.90;;;;;;5080273;28;20081;-46
2022/08/14 07:32:03;;;;;;;21.48;18.38;;;22.30;99.90;;;;;;5087999;28;20032;-45
2022/08/14 07:34:28;;;;;;;18.60;16.77;;;22.40;99.90;;;;;;5085164;28;20451;-46
2022/08/14 07:36:54;;;;;;;18.20;16.33;;;22.40;99.90;;;;;;5076761;28;20043;-47
2022/08/14 07:39:20;;;;;;;19.80;16.42;;;22.40;99.90;;;;;;5072502;28;20017;-44
2022/08/14 07:41:46;;;;;;;17.77;15.75;;;22.50;99.90;;;;;;5057812;28;20025;-45
2022/08/14 07:44:12;;;;;;;17.85;15.95;;;22.60;99.90;;;;;;5057053;28;20027;-47
2022/08/14 07:46:38;;;;;;;17.35;15.55;;;22.70;99.90;;;;;;5057595;28;20107;-45
2022/08/14 07:49:04;;;;;;;18.27;16.50;;;22.80;99.90;;;;;;5055657;28;20120;-45
2022/08/14 07:51:29;;;;;;;24.42;15.55;;;23.00;99.90;;;;;;5056709;28;20029;-46
2022/08/14 07:53:57;;;;;;;16.58;14.95;;;23.10;99.90;;;;;;5057088;28;20526;-46
2022/08/14 07:56:23;;;;;;;15.30;12.88;;;23.20;99.90;;;;;;5055748;28;20016;-45
2022/08/14 07:58:48;;;;;;;15.55;14.05;;;23.40;99.90;;;;;;5057535;28;20480;-45
2022/08/14 08:01:16;;;;;;;15.63;14.02;;;23.40;99.90;;;;;;5065394;28;20052;-47
2022/08/14 08:03:45;;;;;;;16.00;13.65;;;23.60;99.90;;;;;;5060911;28;20381;-48
2022/08/14 08:06:10;;;;;;;15.77;14.32;;;23.70;99.90;;;;;;5057536;28;20046;-46
2022/08/14 08:08:36;;;;;;;15.02;13.52;;;24.00;99.90;;;;;;5074238;28;20020;-45
2022/08/14 08:11:03;;;;;;;14.50;12.90;;;24.20;99.90;;;;;;5079092;28;20155;-46
2022/08/14 08:13:32;;;;;;;16.35;12.73;;;24.40;99.90;;;;;;5071716;28;20077;-45
2022/08/14 08:15:57;;;;;;;13.02;11.73;;;24.60;99.90;;;;;;5066400;28;20027;-45
2022/08/14 08:18:25;;;;;;;14.60;12.13;;;24.90;99.90;;;;;;5067821;28;20464;-47
2022/08/14 08:20:53;;;;;;;13.35;11.13;;;25.20;99.90;;;;;;5065946;28;20017;-46
2022/08/14 08:23:21;;;;;;;15.48;10.90;;;25.70;99.90;;;;;;5067621;28;20054;-45
2022/08/14 08:25:50;;;;;;;11.90;10.60;;;26.50;99.90;;;;;;5063710;28;20021;-44
2022/08/14 08:28:17;;;;;;;10.70;9.60;;;27.70;99.90;;;;;;5073231;28;20056;-43
2022/08/14 08:30:50;;;;;;;10.88;9.73;;;28.80;99.90;;;;;;5085792;28;20028;-43
2022/08/14 08:33:16;;;;;;;10.35;8.88;;;29.50;98.70;;;;;;5087599;28;20052;-45
2022/08/14 08:35:42;;;;;;;10.60;8.68;;;29.80;96.50;;;;;;5084636;28;20026;-45
2022/08/14 08:38:11;;;;;;;10.95;9.73;;;30.20;95.10;;;;;;5075729;28;20025;-44
2022/08/14 08:40:40;;;;;;;10.57;9.30;;;30.40;94.70;;;;;;5050607;28;20380;-45
2022/08/14 08:43:19;;;;;;;10.32;8.35;;;30.30;93.90;;;;;;5051121;28;20025;-44
2022/08/14 08:45:59;;;;;;;9.65;8.68;;;30.00;93.50;;;;;;5050855;28;20104;-44
2022/08/14 08:48:29;;;;;;;9.75;8.85;;;29.90;93.80;;;;;;5050963;28;20029;-44
2022/08/14 08:50:55;;;;;;;;;;;29.80;93.70;;;;;;5049316;28;20123;-44
2022/08/14 08:53:21;;;;;;;10.32;9.27;;;29.60;93.30;;;;;;5050892;28;20131;-44
2022/08/14 08:55:46;;;;;;;11.75;8.98;;;29.40;94.30;;;;;;5050536;28;20381;-45
2022/08/14 08:58:17;;;;;;;11.15;9.20;;;29.60;94.70;;;;;;5050948;28;20028;-45
2022/08/14 09:00:52;;;;;;;10.25;9.32;;;29.90;93.80;;;;;;5050088;28;20033;-45
2022/08/14 09:03:20;;;;;;;9.65;8.73;;;30.10;93.80;;;;;;5051023;28;20056;-44
2022/08/14 09:06:02;;;;;;;9.95;9.05;;;30.30;92.80;;;;;;5052166;28;20480;-47
2022/08/14 09:08:33;;;;;;;10.23;9.23;;;30.50;92.10;;;;;;5081428;28;20029;-44
2022/08/14 09:11:04;;;;;;;9.98;8.52;;;30.40;91.80;;;;;;5089662;28;20498;-45
2022/08/14 09:13:30;;;;;;;12.20;9.80;;;30.50;90.60;;;;;;5090515;28;20036;-46
2022/08/14 09:15:55;;;;;;;9.65;8.75;;;30.40;90.70;;;;;;5090381;28;20491;-45
2022/08/14 09:18:22;;;;;;;11.05;9.15;;;30.60;91.10;;;;;;5090707;28;20056;-45
2022/08/14 09:20:51;;;;;;;10.32;9.32;;;31.40;90.80;;;;;;5089858;28;20024;-45
2022/08/14 09:23:17;;;;;;;10.37;8.50;;;32.50;89.90;;;;;;5090660;28;20471;-44
2022/08/14 09:25:46;;;;;;;9.25;8.35;;;33.30;85.50;;;;;;5084482;28;20120;-45
2022/08/14 09:28:14;;;;;;;8.18;7.03;;;34.30;81.70;;;;;;5071440;28;20017;-44
2022/08/14 09:30:43;;;;;;;8.65;7.70;;;35.60;74.80;;;;;;5070415;28;20021;-46
2022/08/14 09:33:44;;;;;;;8.48;7.47;;;36.20;72.10;;;;;;5068046;28;20029;-47
2022/08/14 09:36:55;;;;;;;8.48;7.18;;;35.60;67.60;;;;;;5070649;28;20021;-45
2022/08/14 09:39:41;;;;;;;11.13;7.45;;;35.30;69.90;;;;;;5044145;28;20036;-45
2022/08/14 09:42:33;;;;;;;8.80;7.78;;;36.30;67.70;;;;;;5067852;28;20024;-44
2022/08/14 09:45:04;;;;;;;8.23;7.43;;;37.40;66.20;;;;;;5067772;28;20104;-47
2022/08/14 09:47:42;;;;;;;8.52;6.78;;;38.00;64.50;;;;;;5069675;28;20423;-47
2022/08/14 09:50:29;;;;;;;8.40;7.57;;;38.10;60.90;;;;;;5069294;28;20024;-46
2022/08/14 09:53:04;;;;;;;7.53;6.88;;;39.00;59.40;;;;;;5066604;28;20031;-48
2022/08/14 09:55:33;;;;;;;9.60;6.95;;;39.70;57.80;;;;;;5072073;28;20399;-45
2022/08/14 09:58:18;;;;;;;7.45;6.75;;;39.90;56.50;;;;;;5072657;28;20012;-45
2022/08/14 10:00:55;;;;;;;7.95;6.80;;;40.50;55.50;;;;;;5070038;28;20411;-45
2022/08/14 10:03:47;;;;;;;7.78;7.07;;;39.50;55.30;;;;;;5069130;28;20586;-46
2022/08/14 10:06:19;;;;;;;9.48;7.07;;;39.00;57.50;;;;;;5065861;28;20118;-44
2022/08/14 10:08:46;;;;;;;9.05;8.25;;;38.30;57.50;;;;;;5074359;28;20059;-45
2022/08/14 10:11:21;;;;;;;9.40;8.20;;;37.30;58.70;;;;;;5069642;28;20104;-45
2022/08/14 10:13:52;;;;;;;8.63;7.85;;;36.80;59.40;;;;;;5069861;28;20395;-45
2022/08/14 10:16:18;;;;;;;10.05;8.18;;;36.70;60.80;;;;;;5069575;28;20031;-46
2022/08/14 10:18:44;;;;;;;9.50;8.05;;;36.50;61.10;;;;;;5069393;28;20494;-47
2022/08/14 10:21:16;;;;;;;8.93;7.88;;;36.70;59.70;;;;;;5068403;28;20095;-44
2022/08/14 10:23:48;;;;;;;10.30;7.90;;;36.70;58.90;;;;;;5069103;28;20083;-47
2022/08/14 10:26:16;;;;;;;13.23;7.95;;;36.70;59.80;;;;;;5066613;28;20630;-45
2022/08/14 10:28:44;;;;;;;9.68;8.27;;;36.50;61.00;;;;;;5079063;28;20218;-48
2022/08/14 10:31:23;;;;;;;9.02;8.05;;;36.70;61.40;;;;;;5068943;28;20401;-47
2022/08/14 10:34:11;;;;;;;8.93;8.02;;;37.00;61.30;;;;;;5069846;28;20046;-47
2022/08/14 10:36:40;;;;;;;9.70;8.55;;;38.30;59.10;;;;;;5068561;28;20056;-45
2022/08/14 10:39:20;;;;;;;9.93;8.93;;;39.10;57.60;;;;;;5077297;28;20478;-47
2022/08/14 10:41:46;;;;;;;9.60;8.70;;;39.50;56.60;;;;;;5069448;28;20082;-46
2022/08/14 10:44:15;;;;;;;15.48;8.85;;;39.80;56.30;;;;;;5070041;28;20031;-47
2022/08/14 10:46:46;;;;;;;;;;;40.50;54.80;;;;;;5069055;28;20028;-47
2022/08/14 10:49:20;;;;;;;9.50;8.48;;;41.40;53.20;;;;;;5070013;28;20078;-47
2022/08/14 10:51:58;;;;;;;8.30;7.50;;;40.90;53.10;;;;;;5069163;28;20373;-45
2022/08/14 10:54:39;;;;;;;9.65;7.32;;;41.20;53.90;;;;;;5069789;28;20056;-45
2022/08/14 10:57:25;;;;;;;8.82;7.68;;;41.70;52.40;;;;;;5069740;28;20484;-46
2022/08/14 10:59:52;;;;;;;8.13;7.45;;;41.70;51.90;;;;;;5069900;28;20031;-45
2022/08/14 11:02:28;;;;;;;9.15;7.65;;;41.80;51.30;;;;;;5068815;28;20467;-46
2022/08/14 11:05:17;;;;;;;8.10;7.28;;;41.90;51.20;;;;;;5065999;28;20032;-46
2022/08/14 11:07:55;;;;;;;7.65;6.85;;;41.90;51.50;;;;;;5067323;28;20032;-46
2022/08/14 11:10:45;;;;;;;9.25;7.40;;;42.50;51.30;;;;;;5069027;28;20559;-45
2022/08/14 11:13:20;;;;;;;7.72;7.03;;;43.00;50.00;;;;;;5069180;28;20028;-45
2022/08/14 11:15:47;;;;;;;8.20;7.22;;;42.40;50.00;;;;;;5068220;28;20048;-49
2022/08/14 11:18:13;;;;;;;10.32;7.75;;;42.60;50.70;;;;;;5067673;28;20074;-46
2022/08/14 11:20:53;;;;;;;7.70;7.00;;;43.20;48.50;;;;;;5068984;28;20029;-46
2022/08/14 11:23:21;;;;;;;8.18;7.38;;;42.70;49.60;;;;;;5067050;28;20100;-46
2022/08/14 11:25:48;;;;;;;7.88;7.18;;;42.40;49.60;;;;;;5072596;28;20116;-45
2022/08/14 11:28:14;;;;;;;7.63;6.90;;;42.80;48.80;;;;;;5085473;28;20035;-46
2022/08/14 11:30:43;;;;;;;8.63;7.13;;;43.00;48.80;;;;;;5083160;28;20016;-44
2022/08/14 11:33:09;;;;;;;9.88;8.20;;;42.10;49.10;;;;;;5080162;28;20028;-46
2022/08/14 11:35:37;;;;;;;7.97;7.28;;;41.00;50.40;;;;;;5086551;28;20020;-46
2022/08/14 11:38:05;;;;;;;9.15;8.27;;;40.10;51.20;;;;;;5081432;28;20016;-45
2022/08/14 11:40:36;;;;;;;9.27;8.43;;;39.20;52.70;;;;;;5083830;28;20029;-45
2022/08/14 11:43:04;;;;;;;9.57;8.75;;;38.40;54.10;;;;;;5073231;28;20043;-45
2022/08/14 11:45:33;;;;;;;9.27;8.48;;;38.00;54.90;;;;;;5088960;28;20023;-45
2022/08/14 11:48:18;;;;;;;11.57;8.38;;;37.60;55.50;;;;;;5077849;28;20660;-46
2022/08/14 11:50:45;;;;;;;11.30;9.35;;;37.60;54.70;;;;;;5048870;28;20098;-46
2022/08/14 11:53:20;;;;;;;9.82;8.95;;;37.30;56.80;;;;;;5073817;28;20035;-44
2022/08/14 11:55:46;;;;;;;10.10;8.68;;;38.10;53.90;;;;;;5089519;28;20539;-45
2022/08/14 11:58:12;;;;;;;9.30;8.38;;;38.40;53.60;;;;;;5081614;28;20028;-46
2022/08/14 12:01:02;;;;;;;8.18;7.57;;;38.20;53.30;;;;;;5080817;28;20032;-45
2022/08/14 12:03:40;;;;;;;11.57;9.30;;;38.10;54.20;;;;;;5082764;28;20097;-46
2022/08/14 12:06:11;;;;;;;12.60;8.77;;;37.50;54.70;;;;;;5085356;28;20544;-46
2022/08/14 12:08:38;;;;;;;9.07;7.70;;;36.90;54.90;;;;;;5074794;28;20091;-44
2022/08/14 12:11:06;;;;;;;10.32;8.55;;;36.60;56.10;;;;;;5067126;28;20403;-44
2022/08/14 12:13:33;;;;;;;9.63;8.43;;;37.10;54.10;;;;;;5066241;28;20028;-44
2022/08/14 12:16:02;;;;;;;9.15;8.23;;;36.80;54.50;;;;;;5079600;28;20028;-45
2022/08/14 12:18:31;;;;;;;14.85;9.05;;;36.20;54.50;;;;;;5068077;28;20032;-45
2022/08/14 12:20:57;;;;;;;10.83;9.30;;;36.00;55.80;;;;;;5084191;28;20030;-44
2022/08/14 12:23:24;;;;;;;9.68;8.77;;;35.90;56.40;;;;;;5087176;28;20017;-44
2022/08/14 12:26:03;;;;;;;10.10;9.15;;;36.10;56.30;;;;;;5084448;28;20028;-44
2022/08/14 12:28:28;;;;;;;10.07;9.07;;;36.20;56.60;;;;;;5087887;28;20020;-46
2022/08/14 12:30:53;;;;;;;11.13;9.00;;;36.20;55.80;;;;;;5082216;28;20432;-45
2022/08/14 12:33:25;;;;;;;9.35;8.48;;;35.40;57.40;;;;;;5089827;28;20028;-45
2022/08/14 12:35:53;;;;;;;9.90;8.70;;;35.00;57.10;;;;;;5084007;28;20127;-45
2022/08/14 12:38:31;;;;;;;9.68;8.70;;;34.90;56.50;;;;;;5093088;28;20020;-44
2022/08/14 12:40:57;;;;;;;9.95;8.95;;;34.70;56.70;;;;;;5080533;28;20104;-44
2022/08/14 12:43:22;;;;;;;9.95;9.02;;;34.80;57.20;;;;;;5090970;28;20423;-45
2022/08/14 12:45:53;;;;;;;13.15;8.80;;;34.80;56.70;;;;;;5081489;28;20044;-44
2022/08/14 12:48:20;;;;;;;9.93;8.75;;;35.00;56.40;;;;;;5090249;28;20048;-45
2022/08/14 12:50:48;;;;;;;9.70;8.80;;;35.40;56.70;;;;;;5082645;28;20028;-45
2022/08/14 12:53:13;;;;;;;10.07;9.02;;;35.60;56.40;;;;;;5089166;28;20025;-44
2022/08/14 12:55:41;;;;;;;9.20;8.25;;;35.70;54.80;;;;;;5085040;28;20031;-44
2022/08/14 12:58:07;;;;;;;11.10;8.52;;;35.50;54.60;;;;;;5080212;28;20112;-43